Terminal Aerodrome Forecast
Issued by NWS

Home | Current Version | Previous Version | Text Only | Print | Product List | Glossary On
Versions: 1 2 3 4 5 6 7 8 9 10 11 12
174
FTUS42 KTBW 221131
TAFRSW
TAF
KRSW 221131Z 2212/2312 07006KT P6SM FEW015 SCT025
     FM221500 13010KT P6SM VCSH SCT025 BKN100
     FM221800 19011KT P6SM VCTS SCT025CB BKN050
     FM230100 13005KT P6SM FEW030 SCT100=

USA.gov is the U.S. government's official web portal to all federal, state and local government web resources and services.